Boneville, GA

9:05 AM EDT on July 29, 2016 (GMT -0400)
Thomson-McDuffie County

Weather History for KHQU - December, 2013

Change the Weather History Date:

Friday, December 13, 2013

  Actual Average (KDBN) Record (KDBN)
Temperature  
Mean Temperature 40 °F -  
Max Temperature 57 °F 61 °F 82 °F (1931)
Min Temperature 23 °F 37 °F 10 °F (1962)
Degree Days  
Heating Degree Days 25    
Moisture  
Dew Point 31 °F    
Average Humidity 77    
Maximum Humidity 100    
Minimum Humidity 35    
Precipitation  
Precipitation 0.00 in - - ()
Sea Level Pressure  
Sea Level Pressure 30.35 in    
Wind  
Wind Speed 0 mph (SSE)    
Max Wind Speed 5 mph    
Max Gust Speed -    
Visibility 10 miles    
Events      
Averages and records for this station are not official NWS values.
T = Trace of Precipitation, MM = Missing Value Source: NWS Daily Summary

Daily Weather History Graph

Daily Weather History Graph

Search for Another Location

Airport or City:

Trip Planner

Search our weather history database for the weather conditions in past years. The results will help you decide how hot, cold, wet, or windy it might be!

Date:

Astronomy

Dec. 13, 2013 Rise Set
Actual Time 7:25 AM EST 5:23 PM EST
Civil Twilight 6:58 AM EST 5:50 PM EST
Nautical Twilight 6:27 AM EST 6:21 PM EST
Astronomical Twilight 5:56 AM EST 6:51 PM EST
Moon 2:58 PM EST (12/13) 3:54 AM EST (12/13)
Length of Visible Light 10h 52m
Length of Day
9h 57m
Waxing Gibbous, 88% of the Moon is Illuminated
Dec 13
Waxing Gibbous
Dec 17
Full
Dec 25
Last Quarter
Jan 1
New
Jan 7
First Quarter

Hourly Weather History & Observations

Time (EST) Temp. Windchill Dew Point Humidity Pressure Visibility Wind Dir Wind Speed Gust Speed Precip Events Conditions
12:15 AM 27.5 °F - 27.5 °F 100% 30.41 in 10.0 mi Calm Calm - N/A   Clear
12:35 AM 28.2 °F - 28.2 °F 100% 30.41 in 10.0 mi Calm Calm - N/A   Clear
12:55 AM 28.2 °F - 28.2 °F 100% 30.41 in 10.0 mi Calm Calm - N/A   Clear
1:15 AM 27.5 °F - 27.5 °F 100% 30.41 in 10.0 mi Calm Calm - N/A   Clear
1:35 AM 27.1 °F - 27.1 °F 100% 30.42 in 10.0 mi Calm Calm - N/A   Clear
1:55 AM 26.8 °F - 26.8 °F 100% 30.41 in 10.0 mi Calm Calm - N/A   Clear
2:15 AM 27.3 °F - 27.3 °F 100% 30.41 in 10.0 mi Calm Calm - N/A   Clear
2:35 AM 26.8 °F - 26.8 °F 100% 30.41 in 10.0 mi Calm Calm - N/A   Clear
2:55 AM 26.6 °F - 26.6 °F 100% 30.40 in 10.0 mi Calm Calm - N/A   Clear
3:15 AM 26.2 °F - 26.2 °F 100% 30.40 in 10.0 mi Calm Calm - N/A   Clear
3:35 AM 26.4 °F - 26.4 °F 100% 30.41 in 10.0 mi Calm Calm - N/A   Clear
3:55 AM 26.2 °F - 26.2 °F 100% 30.41 in 10.0 mi Calm Calm - N/A   Clear
4:15 AM 25.5 °F - 25.5 °F 100% 30.41 in 10.0 mi Calm Calm - N/A   Clear
4:35 AM 25.7 °F - 25.7 °F 100% 30.40 in 10.0 mi Calm Calm - N/A   Clear
4:55 AM 25.3 °F - 25.3 °F 100% 30.40 in 10.0 mi Calm Calm - N/A   Clear
5:15 AM 25.2 °F - 25.2 °F 100% 30.39 in 10.0 mi Calm Calm - N/A   Clear
5:35 AM 24.8 °F - 24.8 °F 100% 30.40 in 10.0 mi Calm Calm - N/A   Clear
5:55 AM 24.8 °F - 24.8 °F 100% 30.40 in 10.0 mi Calm Calm - N/A   Clear
6:15 AM 24.6 °F - 24.6 °F 100% 30.41 in 10.0 mi Calm Calm - N/A   Clear
6:35 AM 24.4 °F - 24.4 °F 100% 30.41 in 10.0 mi Calm Calm - N/A   Clear
6:55 AM 23.5 °F - 23.5 °F 100% 30.41 in 10.0 mi Calm Calm - N/A   Clear
7:15 AM 23.7 °F - 23.7 °F 100% 30.41 in 10.0 mi Calm Calm - N/A   Clear
7:35 AM 23.5 °F - 23.5 °F 100% 30.41 in 10.0 mi Calm Calm - N/A   Clear
7:55 AM 24.6 °F - 24.6 °F 100% 30.41 in 10.0 mi Calm Calm - N/A   Clear
8:15 AM 26.4 °F - 26.4 °F 100% 30.41 in 10.0 mi Calm Calm - N/A   Clear
8:35 AM 28.9 °F - 28.9 °F 100% 30.40 in 10.0 mi Calm Calm - N/A   Clear
8:55 AM 32.2 °F - 32.2 °F 100% 30.40 in 10.0 mi Calm Calm - N/A   Clear
9:15 AM 37.2 °F - 34.5 °F 90% 30.41 in 10.0 mi Calm Calm - N/A   Clear
9:35 AM 39.2 °F - 35.1 °F 85% 30.41 in 10.0 mi Calm Calm - N/A   Clear
9:55 AM 41.5 °F - 33.6 °F 73% 30.42 in 10.0 mi Calm Calm - N/A   Clear
10:15 AM 43.7 °F 41.1 °F 32.7 °F 65% 30.42 in 10.0 mi SSE 4.6 mph - N/A   Clear
10:35 AM 45.9 °F - 32.2 °F 59% 30.42 in 10.0 mi Calm Calm - N/A   Clear
10:55 AM 47.7 °F - 31.8 °F 54% 30.41 in 10.0 mi SE 4.6 mph - N/A   Clear
11:15 AM 48.9 °F - 32.0 °F 52% 30.40 in 10.0 mi South 4.6 mph - N/A   Clear
11:35 AM 50.2 °F - 32.4 °F 50% 30.39 in 10.0 mi SSE 3.5 mph - N/A   Clear
11:55 AM 51.3 °F - 32.4 °F 48% 30.38 in 10.0 mi SSE 3.5 mph - N/A   Clear
12:15 PM 51.6 °F - 32.4 °F 48% 30.37 in 10.0 mi Calm Calm - N/A   Clear
12:35 PM 53.1 °F - 32.9 °F 46% 30.36 in 10.0 mi SW 4.6 mph - N/A   Clear
12:55 PM 52.7 °F - 32.0 °F 45% 30.35 in 10.0 mi Calm Calm - N/A   Clear
1:15 PM 55.4 °F - 30.9 °F 39% 30.34 in 10.0 mi SW 4.6 mph - N/A   Clear
1:35 PM 55.4 °F - 30.6 °F 39% 30.33 in 10.0 mi South 4.6 mph - N/A   Clear
1:55 PM 56.7 °F - 29.8 °F 36% 30.32 in 10.0 mi Calm Calm - N/A   Clear
2:15 PM 56.5 °F - 30.4 °F 37% 30.31 in 10.0 mi Calm Calm - N/A   Clear
2:35 PM 56.7 °F - 30.4 °F 37% 30.30 in 10.0 mi SSW 3.5 mph - N/A   Clear
2:55 PM 57.0 °F - 30.0 °F 36% 30.30 in 10.0 mi Calm Calm - N/A   Clear
3:15 PM 57.4 °F - 30.9 °F 37% 30.30 in 10.0 mi South 3.5 mph - N/A   Clear
3:35 PM 56.7 °F - 29.5 °F 35% 30.29 in 10.0 mi Calm Calm - N/A   Clear
3:55 PM 56.3 °F - 30.6 °F 38% 30.29 in 10.0 mi SSE 4.6 mph - N/A   Clear
4:15 PM 55.8 °F - 31.1 °F 39% 30.28 in 10.0 mi Calm Calm - N/A   Clear
4:35 PM 55.2 °F - 30.6 °F 39% 30.29 in 10.0 mi Calm Calm - N/A   Clear
4:55 PM 52.2 °F - 32.0 °F 46% 30.29 in 10.0 mi Calm Calm - N/A   Clear
5:15 PM 49.5 °F - 33.4 °F 54% 30.29 in 10.0 mi Calm Calm - N/A   Clear
5:35 PM 48.0 °F - 34.9 °F 60% 30.29 in 10.0 mi Calm Calm - N/A   Clear
5:55 PM 46.6 °F - 35.8 °F 66% 30.28 in 10.0 mi Calm Calm - N/A   Clear
6:15 PM 45.7 °F - 37.2 °F 72% 30.28 in 10.0 mi Calm Calm - N/A   Clear
6:35 PM 44.8 °F - 36.1 °F 72% 30.28 in 10.0 mi Calm Calm - N/A   Clear
6:55 PM 43.7 °F - 37.9 °F 80% 30.29 in 10.0 mi Calm Calm - N/A   Clear
7:15 PM 42.8 °F - 38.1 °F 84% 30.29 in 10.0 mi Calm Calm - N/A   Clear
7:35 PM 43.3 °F - 37.2 °F 79% 30.29 in 10.0 mi Calm Calm - N/A   Clear
7:55 PM 42.8 °F - 38.5 °F 85% 30.29 in 10.0 mi Calm Calm - N/A   Clear
8:15 PM 42.6 °F - 39.2 °F 88% 30.30 in 10.0 mi Calm Calm - N/A   Clear
8:35 PM 42.3 °F - 39.6 °F 90% 30.31 in 10.0 mi Calm Calm - N/A   Clear
8:55 PM 42.4 °F - 39.2 °F 88% 30.31 in 10.0 mi Calm Calm - N/A   Clear
9:15 PM 41.2 °F - 38.8 °F 91% 30.32 in 10.0 mi Calm Calm - N/A   Clear
9:35 PM 41.9 °F - 39.6 °F 91% 30.31 in 10.0 mi Calm Calm - N/A   Clear
9:55 PM 42.4 °F - 39.0 °F 88% 30.29 in 10.0 mi Calm Calm - N/A   Clear
10:15 PM 41.4 °F - 38.8 °F 91% 30.28 in 10.0 mi Calm Calm - N/A   Clear
10:35 PM 45.1 °F 42.8 °F 37.4 °F 74% 30.26 in 10.0 mi East 4.6 mph - N/A   Clear
10:55 PM 45.1 °F - 38.1 °F 76% 30.26 in 10.0 mi Calm Calm - N/A   Clear
11:15 PM 46.8 °F - 38.3 °F 72% 30.25 in 10.0 mi Calm Calm - N/A   Scattered Clouds
11:35 PM 46.6 °F - 39.0 °F 75% 30.26 in 10.0 mi Calm Calm - N/A   Overcast
11:55 PM 43.7 °F - 40.8 °F 90% 30.27 in 10.0 mi Calm Calm - N/A   Mostly Cloudy